Terminal Aerodrome Forecast
Issued by NWS

Home | Current Version | Previous Version | Text Only | Print | Product List | Glossary Off
Versions: 1 2 3 4 5 6 7 8 9 10 11 12

000
FTUS43 KBIS 241100
TAFDIK
TAF
KDIK 241120Z 2412/2512 26007KT P6SM BKN250
     FM241500 27014KT P6SM SCT100 BKN250
     FM241800 29018G24KT P6SM BKN100 BKN250
     FM250000 27005KT P6SM BKN100 BKN250=

USA.gov is the U.S. government's official web portal to all federal, state and local government web resources and services.